createdAt,value
2017-08-03T00:00:23.025Z,20.47
2017-08-03T00:02:50.633Z,15.83
2017-08-03T00:05:18.162Z,17.00
2017-08-03T00:07:46.398Z,27.13
2017-08-03T00:10:13.861Z,20.37
2017-08-03T00:12:41.345Z,21.73
2017-08-03T00:15:09.728Z,24.40
2017-08-03T00:17:38.148Z,19.73
2017-08-03T00:20:05.622Z,22.93
2017-08-03T00:22:33.084Z,22.10
2017-08-03T00:25:00.689Z,20.87
2017-08-03T00:27:28.925Z,17.43
2017-08-03T00:29:56.389Z,20.30
2017-08-03T00:32:23.874Z,22.37
2017-08-03T00:34:52.109Z,26.73
2017-08-03T00:37:19.572Z,18.70
2017-08-03T00:39:47.056Z,25.77
2017-08-03T00:42:15.296Z,21.60
2017-08-03T00:44:42.773Z,22.70
2017-08-03T00:47:10.236Z,22.73
2017-08-03T00:49:37.710Z,18.47
2017-08-03T00:52:05.177Z,24.40
2017-08-03T00:54:32.719Z,21.03
2017-08-03T00:57:00.940Z,20.67
2017-08-03T00:59:28.430Z,21.77
2017-08-03T01:01:55.921Z,25.90
2017-08-03T01:04:23.395Z,18.53
2017-08-03T01:06:51.065Z,22.07
2017-08-03T01:09:18.530Z,24.27
2017-08-03T01:11:46.055Z,20.93
2017-08-03T01:14:13.517Z,24.00
2017-08-03T01:16:41.026Z,19.80
2017-08-03T01:19:08.494Z,22.37
2017-08-03T01:21:35.975Z,28.27
2017-08-03T01:24:04.221Z,20.27
2017-08-03T01:26:31.682Z,23.10
2017-08-03T01:28:59.161Z,20.50
2017-08-03T01:31:27.409Z,19.47
2017-08-03T01:33:54.890Z,22.00
2017-08-03T01:36:23.201Z,22.87
2017-08-03T01:38:50.669Z,19.53
2017-08-03T01:41:18.265Z,19.77
2017-08-03T01:43:45.740Z,27.23
2017-08-03T01:46:13.974Z,22.23
2017-08-03T01:48:41.480Z,18.83
2017-08-03T01:51:08.941Z,18.17
2017-08-03T01:53:36.425Z,20.07
2017-08-03T01:56:03.918Z,21.47
2017-08-03T01:58:31.474Z,21.00
2017-08-03T02:00:58.953Z,21.30
2017-08-03T02:03:27.188Z,22.93
2017-08-03T02:05:54.659Z,21.13
2017-08-03T02:08:22.142Z,21.10
2017-08-03T02:10:50.377Z,21.03
2017-08-03T02:13:18.056Z,23.00
2017-08-03T02:15:45.504Z,21.97
2017-08-03T02:18:12.996Z,18.23
2017-08-03T02:20:40.488Z,19.90
2017-08-03T02:23:07.953Z,21.57
2017-08-03T02:25:35.564Z,19.30
2017-08-03T02:28:03.796Z,25.03
2017-08-03T02:30:31.295Z,20.27
2017-08-03T02:32:59.523Z,18.80
2017-08-03T02:35:27.097Z,26.43
2017-08-03T02:37:54.603Z,20.40
2017-08-03T02:40:23.050Z,17.63
2017-08-03T02:42:50.527Z,16.50
2017-08-03T02:45:18.752Z,20.13
2017-08-03T02:47:46.242Z,18.13
2017-08-03T02:50:13.707Z,15.17
2017-08-03T02:52:41.279Z,20.83
2017-08-03T02:55:10.258Z,17.90
2017-08-03T02:57:38.487Z,19.10
2017-08-03T03:00:06.062Z,22.03
2017-08-03T03:02:33.525Z,21.23
2017-08-03T03:05:00.988Z,22.60
2017-08-03T03:07:28.551Z,21.80
2017-08-03T03:09:56.119Z,17.70
2017-08-03T03:12:24.373Z,17.73
2017-08-03T03:14:51.906Z,18.87
2017-08-03T03:17:19.390Z,24.80
2017-08-03T03:19:46.852Z,28.77
2017-08-03T03:22:14.450Z,23.73
2017-08-03T03:24:41.927Z,24.20
2017-08-03T03:27:09.394Z,19.00
2017-08-03T03:29:36.870Z,18.80
2017-08-03T03:32:04.460Z,21.87
2017-08-03T03:34:32.705Z,19.60
2017-08-03T03:37:00.325Z,21.70
2017-08-03T03:39:27.805Z,22.10
2017-08-03T03:41:55.326Z,26.80
2017-08-03T03:44:22.821Z,19.77
2017-08-03T03:46:50.303Z,17.83
2017-08-03T03:49:17.797Z,26.13
2017-08-03T03:51:45.306Z,22.53
2017-08-03T03:54:12.925Z,24.17
2017-08-03T03:56:40.417Z,24.53
2017-08-03T03:59:07.897Z,32.40
2017-08-03T04:01:35.371Z,22.70
2017-08-03T04:04:02.869Z,21.63
2017-08-03T04:06:30.344Z,21.83
2017-08-03T04:08:57.808Z,23.00
2017-08-03T04:11:25.343Z,26.10
2017-08-03T04:13:52.884Z,19.63
2017-08-03T04:16:20.345Z,22.33
2017-08-03T04:18:47.822Z,24.63
2017-08-03T04:21:15.370Z,22.37
2017-08-03T04:23:42.861Z,22.53
2017-08-03T04:26:10.415Z,26.57
2017-08-03T04:28:37.902Z,24.90
2017-08-03T04:31:05.357Z,26.60
2017-08-03T04:33:33.596Z,21.87
2017-08-03T04:36:01.074Z,23.67
2017-08-03T04:38:28.554Z,18.50
2017-08-03T04:40:56.874Z,21.23
2017-08-03T04:43:24.378Z,21.17
2017-08-03T04:45:52.605Z,21.27
2017-08-03T04:48:20.137Z,18.23
2017-08-03T04:50:47.611Z,20.57
2017-08-03T04:53:15.150Z,19.60
2017-08-03T04:55:43.556Z,15.83
2017-08-03T04:58:11.022Z,15.77
2017-08-03T05:00:38.998Z,17.20
2017-08-03T05:03:06.471Z,15.93
2017-08-03T05:05:33.939Z,19.40
2017-08-03T05:08:02.189Z,16.07
2017-08-03T05:10:29.665Z,14.47
2017-08-03T05:12:57.242Z,15.00
2017-08-03T05:15:25.630Z,17.00
2017-08-03T05:17:53.112Z,14.80
2017-08-03T05:20:20.585Z,15.83
2017-08-03T05:22:48.069Z,13.47
2017-08-03T05:25:15.537Z,14.20
2017-08-03T05:27:43.001Z,14.60
2017-08-03T05:30:11.242Z,17.23
2017-08-03T05:32:38.714Z,13.93
2017-08-03T05:35:06.202Z,16.57
2017-08-03T05:37:34.441Z,15.87
2017-08-03T05:40:01.944Z,17.23
2017-08-03T05:42:29.411Z,18.20
2017-08-03T05:44:56.878Z,18.53
2017-08-03T05:47:24.958Z,16.17
2017-08-03T05:49:52.605Z,19.50
2017-08-03T05:52:20.093Z,22.40
2017-08-03T05:54:47.569Z,15.77
2017-08-03T05:57:15.825Z,14.97
2017-08-03T05:59:43.309Z,18.33
2017-08-03T06:02:11.553Z,13.10
2017-08-03T06:04:39.029Z,14.93
2017-08-03T06:07:06.501Z,18.70
2017-08-03T06:09:33.982Z,16.97
2017-08-03T06:12:01.589Z,13.53
2017-08-03T06:14:29.074Z,15.47
2017-08-03T06:16:57.293Z,14.23
2017-08-03T06:19:24.909Z,12.27
2017-08-03T06:21:53.161Z,14.17
2017-08-03T06:24:20.789Z,16.57
2017-08-03T06:26:48.275Z,13.17
2017-08-03T06:29:15.738Z,15.80
2017-08-03T06:31:43.216Z,23.63
2017-08-03T06:34:11.498Z,17.30
2017-08-03T06:36:39.748Z,13.80
2017-08-03T06:39:07.232Z,14.20
2017-08-03T06:41:35.484Z,16.57
2017-08-03T06:44:02.956Z,16.70
2017-08-03T06:46:30.440Z,16.77
2017-08-03T06:48:57.909Z,17.23
2017-08-03T06:51:25.402Z,20.00
2017-08-03T06:53:52.925Z,16.73
2017-08-03T06:56:20.519Z,19.63
2017-08-03T06:58:47.981Z,16.73
2017-08-03T07:01:15.457Z,14.30
2017-08-03T07:03:43.701Z,15.77
2017-08-03T07:06:11.185Z,15.33
2017-08-03T07:08:39.560Z,16.97
2017-08-03T07:11:07.803Z,17.13
2017-08-03T07:13:35.278Z,15.67
2017-08-03T07:16:02.754Z,18.10
2017-08-03T07:18:30.993Z,19.03
2017-08-03T07:20:58.475Z,14.70
2017-08-03T07:23:25.946Z,24.03
2017-08-03T07:25:54.187Z,24.13
2017-08-03T07:28:21.666Z,16.20
2017-08-03T07:30:49.137Z,15.63
2017-08-03T07:33:17.371Z,17.47
2017-08-03T07:35:44.846Z,17.67
2017-08-03T07:38:12.317Z,13.77
2017-08-03T07:40:40.565Z,12.70
2017-08-03T07:43:08.191Z,10.40
2017-08-03T07:45:35.652Z,15.40
2017-08-03T07:48:03.113Z,10.23
2017-08-03T07:50:30.581Z,10.50
2017-08-03T07:52:58.072Z,17.10
2017-08-03T07:55:26.317Z,11.10
2017-08-03T07:57:53.781Z,10.07
2017-08-03T08:00:21.258Z,10.50
2017-08-03T08:02:48.716Z,11.70
2017-08-03T08:05:16.189Z,15.53
2017-08-03T08:07:44.424Z,14.20
2017-08-03T08:10:11.893Z,17.80
2017-08-03T08:12:39.354Z,9.70
2017-08-03T08:15:06.837Z,12.37
2017-08-03T08:17:34.298Z,15.10
2017-08-03T08:20:01.823Z,12.93
2017-08-03T08:22:29.292Z,11.47
2017-08-03T08:24:57.517Z,9.27
2017-08-03T08:27:25.015Z,6.70
2017-08-03T08:29:52.478Z,6.30
2017-08-03T08:32:19.971Z,13.80
2017-08-03T08:34:47.416Z,8.10
2017-08-03T08:37:20.586Z,9.17
2017-08-03T08:39:55.934Z,5.90
2017-08-03T08:42:23.605Z,7.17
2017-08-03T08:44:51.909Z,8.00
2017-08-03T08:47:19.380Z,7.33
2017-08-03T08:49:46.890Z,5.40
2017-08-03T08:52:23.305Z,5.93
2017-08-03T08:54:50.904Z,5.10
2017-08-03T08:57:18.379Z,7.93
2017-08-03T08:59:45.842Z,5.70
2017-08-03T09:02:13.642Z,8.03
2017-08-03T09:04:41.305Z,5.67
2017-08-03T09:07:08.766Z,7.67
2017-08-03T09:09:36.231Z,6.97
2017-08-03T09:12:03.702Z,7.30
2017-08-03T09:14:31.193Z,5.23
2017-08-03T09:16:58.659Z,6.60
2017-08-03T09:19:26.138Z,9.27
2017-08-03T09:21:53.703Z,7.00
2017-08-03T09:24:21.163Z,8.37
2017-08-03T09:26:48.649Z,9.60
2017-08-03T09:29:16.134Z,8.97
2017-08-03T09:31:44.314Z,5.93
2017-08-03T09:34:11.768Z,7.47
2017-08-03T09:36:39.249Z,7.60
2017-08-03T09:39:06.717Z,11.43
2017-08-03T09:41:34.261Z,6.60
2017-08-03T09:44:01.900Z,8.90
2017-08-03T09:46:29.359Z,8.13
2017-08-03T09:48:56.853Z,4.97
2017-08-03T09:51:25.106Z,6.63
2017-08-03T09:53:52.694Z,5.37
2017-08-03T09:56:20.190Z,6.00
2017-08-03T09:58:48.414Z,4.93
2017-08-03T10:01:16.024Z,4.20
2017-08-03T10:03:44.269Z,5.63
2017-08-03T10:06:11.741Z,6.13
2017-08-03T10:08:39.206Z,10.03
2017-08-03T10:11:07.428Z,5.97
2017-08-03T10:13:34.907Z,4.43
2017-08-03T10:16:02.361Z,3.57
2017-08-03T10:18:29.920Z,6.50
2017-08-03T10:20:57.457Z,4.40
2017-08-03T10:23:24.913Z,5.70
2017-08-03T10:25:52.402Z,3.70
2017-08-03T10:28:19.866Z,4.30
2017-08-03T10:30:47.366Z,3.30
2017-08-03T10:33:14.833Z,3.63
2017-08-03T10:35:42.293Z,6.03
2017-08-03T10:38:09.765Z,4.27
2017-08-03T10:40:37.250Z,2.83
2017-08-03T10:43:05.490Z,2.60
2017-08-03T10:45:33.142Z,4.00
2017-08-03T10:48:00.700Z,3.57
2017-08-03T10:50:28.164Z,9.90
2017-08-03T10:52:55.615Z,4.50
2017-08-03T10:55:23.184Z,3.10
2017-08-03T10:57:50.635Z,4.60
2017-08-03T11:00:18.105Z,6.03
2017-08-03T11:02:45.577Z,3.20
2017-08-03T11:05:13.193Z,5.40
2017-08-03T11:07:40.678Z,4.40
2017-08-03T11:10:08.141Z,7.10
2017-08-03T11:12:35.624Z,2.80
2017-08-03T11:15:03.873Z,6.40
2017-08-03T11:17:31.554Z,3.63
2017-08-03T11:19:59.012Z,5.40
2017-08-03T11:22:26.488Z,7.17
2017-08-03T11:24:54.734Z,7.23
2017-08-03T11:27:22.253Z,6.17
2017-08-03T11:29:49.693Z,5.07
2017-08-03T11:32:17.156Z,4.57
2017-08-03T11:34:44.625Z,6.03
2017-08-03T11:37:12.083Z,5.33
2017-08-03T11:39:39.565Z,4.20
2017-08-03T11:42:07.301Z,3.93
2017-08-03T11:44:34.758Z,9.60
2017-08-03T11:47:02.229Z,2.90
2017-08-03T11:49:29.702Z,3.20
2017-08-03T11:51:57.183Z,3.30
2017-08-03T11:54:24.648Z,4.37
2017-08-03T11:56:52.896Z,3.00
2017-08-03T11:59:20.353Z,3.17
2017-08-03T12:01:47.929Z,5.63
2017-08-03T12:04:16.177Z,4.40
2017-08-03T12:06:43.633Z,3.53
2017-08-03T12:09:11.102Z,2.63
2017-08-03T12:11:38.560Z,3.07
2017-08-03T12:14:06.026Z,3.43
2017-08-03T12:16:34.317Z,3.53
2017-08-03T12:19:01.778Z,3.80
2017-08-03T12:21:29.420Z,2.70
2017-08-03T12:23:56.876Z,2.50
2017-08-03T12:26:25.137Z,7.97
2017-08-03T12:28:52.599Z,3.23
2017-08-03T12:31:20.056Z,6.63
2017-08-03T12:33:47.570Z,3.60
2017-08-03T12:36:15.025Z,4.70
2017-08-03T12:38:42.585Z,2.63
2017-08-03T12:41:10.038Z,2.40
2017-08-03T12:43:37.501Z,4.90
2017-08-03T12:46:05.137Z,3.93
2017-08-03T12:48:32.597Z,4.63
2017-08-03T12:51:00.920Z,4.60
2017-08-03T12:53:28.390Z,2.40
2017-08-03T12:55:55.882Z,8.77
2017-08-03T12:58:24.325Z,3.10
2017-08-03T13:00:51.804Z,3.00
2017-08-03T13:03:20.037Z,2.73
2017-08-03T13:05:47.502Z,4.67
2017-08-03T13:08:14.980Z,2.33
2017-08-03T13:10:43.219Z,3.87
2017-08-03T13:13:10.688Z,3.13
2017-08-03T13:15:38.277Z,3.33
2017-08-03T13:18:06.515Z,2.57
2017-08-03T13:20:33.989Z,3.07
2017-08-03T13:23:01.574Z,2.50
2017-08-03T13:25:29.078Z,3.20
2017-08-03T13:27:56.537Z,6.10
2017-08-03T13:30:24.020Z,4.10
2017-08-03T13:32:51.500Z,5.13
2017-08-03T13:35:18.958Z,1.90
2017-08-03T13:37:47.175Z,2.67
2017-08-03T13:40:14.697Z,2.73
2017-08-03T13:42:42.147Z,2.50
2017-08-03T13:45:10.406Z,3.50
2017-08-03T13:47:37.864Z,3.17
2017-08-03T13:50:06.094Z,3.17
2017-08-03T13:52:33.569Z,7.27
2017-08-03T13:55:01.033Z,4.77
2017-08-03T13:57:28.497Z,5.27
2017-08-03T13:59:55.957Z,6.20
2017-08-03T14:02:23.432Z,7.70
2017-08-03T14:04:51.651Z,3.27
2017-08-03T14:07:19.128Z,2.77
2017-08-03T14:09:46.603Z,8.20
2017-08-03T14:12:14.085Z,3.50
2017-08-03T14:14:41.559Z,2.47
2017-08-03T14:17:09.033Z,2.57
2017-08-03T14:19:36.486Z,3.70
2017-08-03T14:22:03.953Z,2.53
2017-08-03T14:24:31.468Z,4.30
2017-08-03T14:26:59.746Z,2.17
2017-08-03T14:29:27.213Z,2.60
2017-08-03T14:31:54.697Z,3.30
2017-08-03T14:34:22.254Z,2.80
2017-08-03T14:36:49.714Z,7.03
2017-08-03T14:39:17.185Z,3.97
2017-08-03T14:41:44.648Z,4.93
2017-08-03T14:44:12.128Z,6.30
2017-08-03T14:46:40.354Z,4.80
2017-08-03T14:51:41.965Z,5.10
2017-08-03T14:54:09.476Z,6.40
2017-08-03T14:56:36.940Z,5.83
2017-08-03T14:59:04.418Z,2.70
2017-08-03T15:01:31.893Z,6.83
2017-08-03T15:03:59.389Z,7.57
2017-08-03T15:06:26.850Z,8.13
2017-08-03T15:08:54.324Z,4.53
2017-08-03T15:11:21.807Z,7.47
2017-08-03T15:13:49.280Z,4.57
2017-08-03T15:16:16.745Z,2.87
2017-08-03T15:18:45.170Z,5.13
2017-08-03T15:21:12.636Z,4.27
2017-08-03T15:23:40.102Z,4.50
2017-08-03T15:26:07.569Z,5.63
2017-08-03T15:28:35.203Z,3.50
2017-08-03T15:31:02.740Z,5.40
2017-08-03T15:33:30.189Z,5.93
2017-08-03T15:35:57.674Z,7.10
2017-08-03T15:38:25.433Z,4.73
2017-08-03T15:40:52.904Z,4.20
2017-08-03T15:43:20.369Z,8.97
2017-08-03T15:45:47.845Z,8.23
2017-08-03T15:48:15.390Z,10.00
2017-08-03T15:50:42.926Z,4.10
2017-08-03T15:53:10.392Z,7.43
2017-08-03T15:55:37.861Z,7.07
2017-08-03T15:58:05.357Z,9.27
2017-08-03T16:00:32.953Z,5.53
2017-08-03T16:03:00.426Z,6.00
2017-08-03T16:05:27.910Z,8.03
2017-08-03T16:07:55.400Z,5.00
2017-08-03T16:10:22.877Z,8.80
2017-08-03T16:12:50.393Z,6.80
2017-08-03T16:15:18.632Z,4.53
2017-08-03T16:17:46.357Z,11.47
2017-08-03T16:20:13.836Z,5.10
2017-08-03T16:22:41.327Z,3.57
2017-08-03T16:25:08.865Z,11.33
2017-08-03T16:27:36.351Z,4.93
2017-08-03T16:30:03.997Z,5.47
2017-08-03T16:32:31.449Z,9.17
2017-08-03T16:34:59.527Z,7.83
2017-08-03T16:37:26.988Z,8.30
2017-08-03T16:39:54.541Z,7.00
2017-08-03T16:42:22.017Z,3.60
2017-08-03T16:44:50.293Z,18.87
2017-08-03T16:47:18.621Z,2.80
2017-08-03T16:49:46.130Z,10.80
2017-08-03T16:52:14.402Z,11.90
2017-08-03T16:54:41.936Z,8.27
2017-08-03T16:57:09.427Z,5.93
2017-08-03T16:59:37.653Z,8.43
2017-08-03T17:02:05.403Z,6.53
2017-08-03T17:04:32.874Z,7.90
2017-08-03T17:07:01.218Z,7.77
2017-08-03T17:09:28.759Z,5.87
2017-08-03T17:11:56.379Z,10.90
2017-08-03T17:14:23.871Z,5.90
2017-08-03T17:16:52.158Z,7.87
2017-08-03T17:19:19.634Z,8.87
2017-08-03T17:21:47.389Z,17.90
2017-08-03T17:24:14.872Z,10.47
2017-08-03T17:26:42.336Z,6.40
2017-08-03T17:29:09.813Z,11.80
2017-08-03T17:31:37.297Z,7.23
2017-08-03T17:34:05.555Z,11.30
2017-08-03T17:36:33.225Z,7.27
2017-08-03T17:39:00.742Z,5.10
2017-08-03T17:41:28.219Z,12.37
2017-08-03T17:43:55.776Z,6.37
2017-08-03T17:46:23.265Z,7.60
2017-08-03T17:48:51.520Z,6.47
2017-08-03T17:51:18.985Z,7.17
2017-08-03T17:53:47.389Z,5.53
2017-08-03T17:56:14.866Z,4.43
2017-08-03T17:58:42.372Z,11.03
2017-08-03T18:01:09.865Z,7.63
2017-08-03T18:03:37.626Z,3.80
2017-08-03T18:06:05.099Z,5.30
2017-08-03T18:08:32.555Z,5.50
2017-08-03T18:11:00.078Z,3.50
2017-08-03T18:13:28.326Z,10.07
2017-08-03T18:15:55.803Z,17.40
2017-08-03T18:18:23.313Z,5.40
2017-08-03T18:20:50.801Z,13.20
2017-08-03T18:23:18.349Z,7.47
2017-08-03T18:25:45.819Z,4.40
2017-08-03T18:28:13.372Z,4.43
2017-08-03T18:30:40.840Z,5.33
2017-08-03T18:33:08.325Z,6.20
2017-08-03T18:35:35.795Z,9.23
2017-08-03T18:38:03.483Z,5.73
2017-08-03T18:40:30.945Z,3.97
2017-08-03T18:42:58.432Z,6.40
2017-08-03T18:45:25.895Z,6.90
2017-08-03T18:47:54.155Z,7.53
2017-08-03T18:50:21.732Z,11.43
2017-08-03T18:52:49.223Z,4.73
2017-08-03T18:55:16.706Z,5.33
2017-08-03T18:57:44.175Z,6.63
2017-08-03T19:00:11.844Z,6.97
2017-08-03T19:02:39.301Z,10.90
2017-08-03T19:05:06.792Z,8.50
2017-08-03T19:07:34.350Z,8.40
2017-08-03T19:10:01.859Z,6.23
2017-08-03T19:12:29.345Z,4.87
2017-08-03T19:14:56.845Z,6.23
2017-08-03T19:17:24.325Z,5.33
2017-08-03T19:19:51.855Z,9.50
2017-08-03T19:22:19.305Z,7.63
2017-08-03T19:24:46.794Z,7.00
2017-08-03T19:27:14.262Z,4.30
2017-08-03T19:29:41.745Z,5.20
2017-08-03T19:32:09.237Z,10.17
2017-08-03T19:34:36.706Z,12.33
2017-08-03T19:37:04.171Z,4.27
2017-08-03T19:39:31.688Z,11.10
2017-08-03T19:41:59.941Z,5.37
2017-08-03T19:44:27.609Z,8.80
2017-08-03T19:46:55.073Z,12.33
2017-08-03T19:49:22.554Z,6.70
2017-08-03T19:51:50.732Z,10.03
2017-08-03T19:54:18.285Z,7.07
2017-08-03T19:56:45.996Z,8.53
2017-08-03T19:59:13.469Z,7.60
2017-08-03T20:01:40.951Z,8.53
2017-08-03T20:04:09.185Z,10.53
2017-08-03T20:06:47.635Z,6.40
2017-08-03T20:09:17.760Z,9.40
2017-08-03T20:11:45.245Z,10.30
2017-08-03T20:14:12.705Z,8.53
2017-08-03T20:16:40.187Z,5.87
2017-08-03T20:19:07.667Z,8.60
2017-08-03T20:21:35.922Z,8.97
2017-08-03T20:24:03.465Z,7.20
2017-08-03T20:26:30.950Z,6.70
2017-08-03T20:28:58.582Z,5.43
2017-08-03T20:31:26.053Z,8.20
2017-08-03T20:33:53.993Z,12.10
2017-08-03T20:36:21.533Z,7.10
2017-08-03T20:38:49.009Z,6.90
2017-08-03T20:41:16.494Z,7.07
2017-08-03T20:43:43.961Z,7.27
2017-08-03T20:46:11.441Z,5.30
2017-08-03T20:48:39.693Z,8.27
2017-08-03T20:51:07.149Z,4.13
2017-08-03T20:53:34.638Z,5.60
2017-08-03T20:56:02.237Z,6.80
2017-08-03T20:58:29.710Z,8.97
2017-08-03T21:00:57.190Z,6.43
2017-08-03T21:03:25.423Z,8.20
2017-08-03T21:05:52.920Z,8.47
2017-08-03T21:08:20.385Z,8.13
2017-08-03T21:10:48.630Z,5.47
2017-08-03T21:13:16.101Z,8.40
2017-08-03T21:15:43.584Z,8.17
2017-08-03T21:18:11.278Z,6.80
2017-08-03T21:20:38.738Z,5.63
2017-08-03T21:23:06.218Z,5.43
2017-08-03T21:25:33.682Z,8.37
2017-08-03T21:28:01.360Z,4.80
2017-08-03T21:30:29.722Z,5.67
2017-08-03T21:32:57.194Z,10.87
2017-08-03T21:35:24.853Z,6.27
2017-08-03T21:37:52.307Z,5.83
2017-08-03T21:40:19.774Z,7.90
2017-08-03T21:42:48.012Z,8.47
2017-08-03T21:45:15.510Z,8.97
2017-08-03T21:47:42.989Z,7.50
2017-08-03T21:50:10.521Z,9.77
2017-08-03T21:52:38.764Z,4.90
2017-08-03T21:55:06.225Z,6.77
2017-08-03T21:57:33.708Z,6.27
2017-08-03T22:00:01.947Z,7.47
2017-08-03T22:02:29.435Z,7.97
2017-08-03T22:04:56.917Z,6.73
2017-08-03T22:07:24.406Z,8.63
2017-08-03T22:09:51.883Z,8.83
2017-08-03T22:12:19.353Z,5.97
2017-08-03T22:14:46.894Z,7.50
2017-08-03T22:17:14.475Z,10.40
2017-08-03T22:19:41.935Z,9.97
2017-08-03T22:22:09.428Z,4.80
2017-08-03T22:24:37.390Z,7.27
2017-08-03T22:27:04.899Z,6.10
2017-08-03T22:29:32.361Z,8.90
2017-08-03T22:31:59.825Z,4.40
2017-08-03T22:34:27.312Z,7.10
2017-08-03T22:36:54.871Z,6.47
2017-08-03T22:41:56.986Z,7.53
2017-08-03T22:44:24.538Z,4.13
2017-08-03T22:46:52.146Z,5.93
2017-08-03T22:49:20.476Z,9.13
2017-08-03T22:51:48.091Z,6.97
2017-08-03T22:54:16.616Z,13.63
2017-08-03T22:56:44.100Z,10.60
2017-08-03T22:59:11.589Z,7.63
2017-08-03T23:01:39.825Z,5.60
2017-08-03T23:04:07.369Z,8.80
2017-08-03T23:06:34.842Z,9.10
2017-08-03T23:09:02.306Z,7.90
2017-08-03T23:11:29.769Z,13.80
2017-08-03T23:13:57.275Z,6.90
2017-08-03T23:16:24.734Z,6.53
2017-08-03T23:18:52.207Z,8.30
2017-08-03T23:21:19.687Z,14.10
2017-08-03T23:23:47.170Z,6.53
2017-08-03T23:28:49.305Z,9.47
2017-08-03T23:31:16.787Z,9.77
2017-08-03T23:33:44.273Z,8.47
2017-08-03T23:36:12.542Z,5.20
2017-08-03T23:38:40.006Z,5.23
2017-08-03T23:41:08.265Z,6.87
2017-08-03T23:43:35.743Z,7.20
2017-08-03T23:46:03.985Z,9.83
2017-08-03T23:48:31.937Z,8.20
2017-08-03T23:50:59.425Z,10.20
2017-08-03T23:53:26.902Z,9.80
2017-08-03T23:55:55.138Z,4.97
2017-08-03T23:58:22.605Z,8.30
